Time;durP1;ratioP1;P1;durP2;ratioP2;P2;SDS_P1;SDS_P2;PMS_P1;PMS_P2;Temp;Humidity;BMP_temperature;BMP_pressure;BME280_temperature;BME280_humidity;BME280_pressure;Samples;Min_cycle;Max_cycle;Signal;HPM_P1;HPM_P2
2023/07/16 00:00:04;;;;;;;3.97;2.50;;;22.90;1.00;;;;;;5181320;28;20026;-64
2023/07/16 00:02:37;;;;;;;2.63;2.42;;;22.80;1.00;;;;;;5171165;28;20083;-63
2023/07/16 00:05:09;;;;;;;4.78;3.17;;;22.80;1.00;;;;;;5184190;28;20250;-65
2023/07/16 00:07:43;;;;;;;3.88;2.67;;;22.80;1.00;;;;;;5201575;28;20417;-61
2023/07/16 00:10:17;;;;;;;3.50;2.93;;;22.80;1.00;;;;;;5184474;28;20039;-64
2023/07/16 00:12:54;;;;;;;3.15;2.65;;;22.70;1.00;;;;;;5193022;28;20784;-65
2023/07/16 00:15:31;;;;;;;4.35;3.03;;;22.70;1.00;;;;;;5202822;28;20475;-66
2023/07/16 00:18:02;;;;;;;4.47;2.60;;;22.70;1.00;;;;;;5212204;28;20036;-67
2023/07/16 00:20:34;;;;;;;6.40;2.75;;;22.50;1.00;;;;;;5204417;28;20048;-66
2023/07/16 00:23:12;;;;;;;3.50;2.90;;;22.50;1.20;;;;;;5187507;28;20033;-66
2023/07/16 00:25:45;;;;;;;3.92;2.55;;;22.50;22.20;;;;;;5204175;28;20037;-61
2023/07/16 00:28:19;;;;;;;5.55;3.00;;;22.50;2.70;;;;;;5203419;28;20035;-63
2023/07/16 00:30:50;;;;;;;3.27;2.97;;;22.40;6.40;;;;;;5185809;28;20025;-64
2023/07/16 00:33:22;;;;;;;3.28;2.33;;;22.30;73.60;;;;;;5219670;28;20040;-65
2023/07/16 00:35:53;;;;;;;4.55;2.80;;;22.30;22.90;;;;;;5203453;28;20238;-64
2023/07/16 00:38:27;;;;;;;3.83;3.42;;;22.30;98.50;;;;;;5221003;28;20024;-65
2023/07/16 00:40:58;;;;;;;3.20;2.90;;;22.20;99.90;;;;;;5203737;28;20047;-63
2023/07/16 00:43:29;;;;;;;6.43;2.85;;;22.20;99.90;;;;;;5202817;28;20037;-66
2023/07/16 00:46:01;;;;;;;6.35;3.67;;;22.20;99.90;;;;;;5220579;28;20043;-63
2023/07/16 00:48:39;;;;;;;3.63;2.97;;;22.10;99.90;;;;;;5221612;28;20041;-63
2023/07/16 00:51:12;;;;;;;4.95;2.70;;;22.10;99.90;;;;;;5188586;28;20047;-64
2023/07/16 00:53:51;;;;;;;2.97;2.67;;;22.00;99.90;;;;;;5203297;28;20025;-64
2023/07/16 00:56:23;;;;;;;3.08;2.78;;;21.90;99.90;;;;;;5203402;28;20048;-65
2023/07/16 00:58:54;;;;;;;4.10;3.30;;;21.90;99.90;;;;;;5202829;28;20328;-64
2023/07/16 01:01:26;;;;;;;4.80;2.78;;;21.80;99.90;;;;;;5276165;22;20067;-73
2023/07/16 01:04:05;;;;;;;3.50;3.15;;;21.70;99.90;;;;;;5242853;28;20032;-74
2023/07/16 01:06:39;;;;;;;4.93;2.72;;;21.60;99.90;;;;;;5225436;28;20526;-72
2023/07/16 01:09:17;;;;;;;3.90;3.40;;;21.50;99.90;;;;;;5224617;28;20035;-73
2023/07/16 01:11:53;;;;;;;3.88;2.53;;;21.40;99.90;;;;;;5243355;28;20037;-72
2023/07/16 01:14:30;;;;;;;4.30;2.80;;;21.40;99.90;;;;;;5208500;28;20236;-73
2023/07/16 01:17:10;;;;;;;3.50;2.92;;;21.30;99.90;;;;;;5239120;28;20280;-72
2023/07/16 01:19:45;;;;;;;4.53;2.70;;;21.20;99.90;;;;;;5240093;28;20249;-74
2023/07/16 01:22:32;;;;;;;4.07;2.97;;;21.10;99.90;;;;;;5225763;28;20020;-72
2023/07/16 01:25:40;;;;;;;4.88;3.10;;;21.00;99.90;;;;;;5241375;28;20046;-73
2023/07/16 01:28:30;;;;;;;5.75;3.20;;;20.90;99.90;;;;;;5240101;28;20278;-74
2023/07/16 01:31:01;;;;;;;4.53;3.15;;;20.90;99.90;;;;;;5240443;28;20030;-74
2023/07/16 01:33:35;;;;;;;4.43;3.58;;;20.80;99.90;;;;;;5242646;28;20032;-74
2023/07/16 01:36:07;;;;;;;3.92;3.35;;;20.80;99.90;;;;;;5222983;28;20375;-74
2023/07/16 01:38:44;;;;;;;4.45;3.20;;;20.80;99.90;;;;;;5241382;28;20034;-73
2023/07/16 01:41:18;;;;;;;3.45;3.13;;;20.80;99.90;;;;;;5224855;28;20274;-74
2023/07/16 01:43:50;;;;;;;6.03;3.38;;;20.70;99.90;;;;;;5242649;28;20099;-73
2023/07/16 01:46:23;;;;;;;4.03;3.38;;;20.80;99.90;;;;;;5237382;28;20244;-73
2023/07/16 01:48:55;;;;;;;9.68;3.35;;;20.80;99.90;;;;;;5241196;28;20042;-73
2023/07/16 01:51:29;;;;;;;3.92;2.92;;;20.80;99.90;;;;;;5224631;28;20039;-74
2023/07/16 01:54:01;;;;;;;3.78;3.22;;;20.70;99.90;;;;;;5240811;28;20221;-73
2023/07/16 01:56:33;;;;;;;4.03;3.42;;;20.60;99.90;;;;;;5241421;28;20206;-74
2023/07/16 01:59:06;;;;;;;5.38;3.67;;;20.60;99.90;;;;;;5256451;28;20031;-73
2023/07/16 02:02:01;;;;;;;6.47;3.10;;;20.60;99.90;;;;;;5240119;28;20039;-72
2023/07/16 02:04:36;;;;;;;4.18;3.10;;;20.70;99.90;;;;;;5241723;28;20359;-75
2023/07/16 02:07:08;;;;;;;5.60;3.65;;;20.60;99.90;;;;;;5223673;28;20043;-73
2023/07/16 02:09:40;;;;;;;4.85;3.30;;;20.60;99.90;;;;;;5239723;28;20205;-74
2023/07/16 02:12:16;;;;;;;4.35;3.30;;;20.50;99.90;;;;;;5241479;28;20201;-73
2023/07/16 02:14:49;;;;;;;4.35;3.45;;;20.50;99.90;;;;;;5223566;28;20148;-73
2023/07/16 02:17:22;;;;;;;3.23;2.93;;;20.50;99.90;;;;;;5240263;28;20181;-73
2023/07/16 02:19:53;;;;;;;3.55;3.10;;;20.40;99.90;;;;;;5222306;28;20450;-73
2023/07/16 02:22:27;;;;;;;3.92;3.28;;;20.30;99.90;;;;;;5241308;28;20022;-73
2023/07/16 02:24:58;;;;;;;5.47;3.33;;;20.40;99.90;;;;;;5234648;28;20028;-73
2023/07/16 02:27:32;;;;;;;4.47;3.22;;;20.40;99.90;;;;;;5213850;28;20329;-72
2023/07/16 02:30:06;;;;;;;5.50;3.47;;;20.40;99.90;;;;;;5240510;28;20050;-74
2023/07/16 02:32:40;;;;;;;;;;;20.30;99.90;;;;;;5257251;28;20032;-72
2023/07/16 02:35:15;;;;;;;4.75;2.88;;;20.30;99.90;;;;;;5222908;28;19914;-73
2023/07/16 02:37:47;;;;;;;4.35;3.13;;;20.30;99.90;;;;;;5239562;28;20028;-72
2023/07/16 02:40:24;;;;;;;4.30;3.00;;;20.30;99.90;;;;;;5240976;28;20366;-72
2023/07/16 02:42:55;;;;;;;4.20;3.40;;;20.30;99.90;;;;;;5241578;28;20033;-73
2023/07/16 02:45:26;;;;;;;5.47;3.67;;;20.30;99.90;;;;;;5219568;28;20538;-73
2023/07/16 02:48:01;;;;;;;5.47;3.20;;;20.30;99.90;;;;;;5239543;28;20047;-74
2023/07/16 02:50:37;;;;;;;4.38;3.03;;;20.20;99.90;;;;;;5242462;28;20333;-72
2023/07/16 02:53:11;;;;;;;4.00;3.50;;;20.20;99.90;;;;;;5216140;28;20374;-73
2023/07/16 02:55:45;;;;;;;6.38;3.63;;;20.20;99.90;;;;;;5251708;28;20430;-73
2023/07/16 02:58:19;;;;;;;;;;;20.10;99.90;;;;;;5238546;28;20040;-73
2023/07/16 03:00:50;;;;;;;4.32;3.50;;;20.10;99.90;;;;;;5259166;28;20223;-73
2023/07/16 03:03:21;;;;;;;3.70;3.30;;;20.00;99.90;;;;;;5246043;28;20039;-73
2023/07/16 03:05:56;;;;;;;8.38;3.70;;;19.90;99.90;;;;;;5253589;28;20017;-73
2023/07/16 03:08:31;;;;;;;4.20;3.22;;;19.90;99.90;;;;;;5242901;28;20055;-73
2023/07/16 03:11:05;;;;;;;4.45;3.33;;;19.90;99.90;;;;;;5248495;28;20230;-73
2023/07/16 03:13:37;;;;;;;4.93;3.60;;;19.80;99.90;;;;;;5240729;28;20029;-72
2023/07/16 03:16:08;;;;;;;4.40;3.50;;;19.80;99.90;;;;;;5220235;28;20021;-73
2023/07/16 03:18:40;;;;;;;4.65;3.25;;;19.80;99.90;;;;;;5241656;28;20305;-73
2023/07/16 03:21:17;;;;;;;5.25;3.67;;;19.80;99.90;;;;;;5239931;28;20355;-73
2023/07/16 03:23:50;;;;;;;3.72;3.33;;;19.80;99.90;;;;;;5239974;28;20047;-72
2023/07/16 03:26:21;;;;;;;4.07;3.58;;;19.80;99.90;;;;;;5239425;28;20044;-73
2023/07/16 03:28:53;;;;;;;4.95;3.92;;;19.80;99.90;;;;;;5250356;28;20024;-73
2023/07/16 03:31:25;;;;;;;4.57;3.50;;;19.80;99.90;;;;;;5235531;28;20040;-73
2023/07/16 03:34:04;;;;;;;6.28;4.15;;;19.90;99.90;;;;;;5240463;28;20058;-73
2023/07/16 03:36:36;;;;;;;5.68;3.30;;;19.90;99.90;;;;;;5239433;28;20229;-73
2023/07/16 03:39:10;;;;;;;4.03;3.05;;;20.00;99.90;;;;;;5235374;28;20043;-73
2023/07/16 03:41:42;;;;;;;4.05;3.53;;;20.10;99.90;;;;;;5202936;28;20051;-73
2023/07/16 03:44:13;;;;;;;6.10;4.13;;;20.30;99.90;;;;;;5218956;28;20032;-73
2023/07/16 03:46:45;;;;;;;4.13;3.17;;;20.50;99.90;;;;;;5220427;28;20443;-73
2023/07/16 03:49:19;;;;;;;4.78;3.08;;;20.50;99.90;;;;;;5241963;28;20032;-73
2023/07/16 03:51:51;;;;;;;5.10;3.55;;;20.70;99.90;;;;;;5241331;28;20118;-73
2023/07/16 03:54:27;;;;;;;4.28;3.05;;;20.70;99.90;;;;;;5238805;28;20044;-72
2023/07/16 03:57:01;;;;;;;5.35;3.50;;;20.90;99.90;;;;;;5240318;28;20455;-73
2023/07/16 03:59:32;;;;;;;5.20;3.45;;;21.00;99.90;;;;;;5240908;28;20043;-73
2023/07/16 04:02:06;;;;;;;5.20;3.03;;;21.20;99.90;;;;;;5242687;28;20028;-72
2023/07/16 04:04:39;;;;;;;4.35;3.22;;;21.30;99.90;;;;;;5243081;28;20480;-71
2023/07/16 04:07:10;;;;;;;4.13;3.58;;;21.60;99.90;;;;;;5242298;28;20054;-71
2023/07/16 04:09:44;;;;;;;4.88;3.20;;;21.60;99.90;;;;;;5243516;28;20037;-71
2023/07/16 04:12:18;;;;;;;4.15;3.75;;;21.70;99.90;;;;;;5226796;28;20142;-72
2023/07/16 04:14:49;;;;;;;7.25;3.40;;;21.90;99.90;;;;;;5243488;28;20511;-71
2023/07/16 04:17:24;;;;;;;4.47;3.42;;;22.10;99.90;;;;;;5222876;28;20032;-72
2023/07/16 04:19:56;;;;;;;5.47;2.95;;;22.10;99.90;;;;;;5242134;28;20050;-72
2023/07/16 04:22:30;;;;;;;5.45;3.13;;;22.40;99.90;;;;;;5242764;28;20248;-73
2023/07/16 04:25:01;;;;;;;4.53;3.70;;;22.50;67.40;;;;;;5242913;28;20322;-72
2023/07/16 04:27:33;;;;;;;4.10;3.40;;;22.50;13.40;;;;;;5250631;28;20233;-74
2023/07/16 04:30:08;;;;;;;4.35;3.17;;;22.90;1.00;;;;;;5224843;28;20305;-71
2023/07/16 04:32:42;;;;;;;6.47;2.90;;;23.10;1.00;;;;;;5252663;28;20030;-72
2023/07/16 04:35:17;;;;;;;3.45;3.15;;;23.30;1.00;;;;;;5243976;28;20028;-72
2023/07/16 04:37:49;;;;;;;3.40;2.70;;;23.40;1.00;;;;;;5242471;28;20048;-73
2023/07/16 04:40:20;;;;;;;3.40;2.70;;;23.40;1.00;;;;;;5244379;28;20032;-71
2023/07/16 04:42:54;;;;;;;3.50;3.00;;;23.40;1.00;;;;;;5243504;28;20265;-72
2023/07/16 04:45:29;;;;;;;3.53;3.00;;;23.50;1.00;;;;;;5238709;28;20024;-71
2023/07/16 04:48:06;;;;;;;4.35;3.08;;;23.70;1.00;;;;;;5243168;28;20058;-73
2023/07/16 04:50:43;;;;;;;3.85;2.85;;;23.70;1.00;;;;;;5242391;28;20036;-72
2023/07/16 04:53:18;;;;;;;3.30;2.88;;;23.80;1.00;;;;;;5243059;28;20048;-73
2023/07/16 04:55:56;;;;;;;2.83;2.53;;;23.80;1.00;;;;;;5242319;28;20196;-71
2023/07/16 04:58:30;;;;;;;6.28;3.58;;;23.80;1.00;;;;;;5243325;28;20235;-70
2023/07/16 05:01:01;;;;;;;3.30;2.37;;;23.90;1.00;;;;;;5242061;28;20219;-72
2023/07/16 05:03:35;;;;;;;3.30;3.00;;;24.10;1.00;;;;;;5243117;28;21138;-72
2023/07/16 05:06:06;;;;;;;3.63;3.30;;;24.40;1.00;;;;;;5243001;28;20261;-72
2023/07/16 05:08:38;;;;;;;5.55;3.67;;;24.70;1.00;;;;;;5258665;28;20033;-71
2023/07/16 05:11:09;;;;;;;3.55;2.85;;;24.90;1.00;;;;;;5242998;28;20271;-72
2023/07/16 05:13:40;;;;;;;5.60;3.05;;;24.90;99.90;;;;;;5243329;28;20032;-72
2023/07/16 05:16:12;;;;;;;5.05;3.10;;;24.50;1.00;;;;;;5235000;28;20046;-72
2023/07/16 05:18:44;;;;;;;3.78;2.80;;;24.40;1.00;;;;;;5207248;28;20351;-72
2023/07/16 05:21:15;;;;;;;5.75;3.10;;;24.40;1.00;;;;;;5241980;28;20039;-72
2023/07/16 05:23:49;;;;;;;4.65;3.03;;;24.30;99.90;;;;;;5240654;28;20041;-72
2023/07/16 05:26:27;;;;;;;4.18;3.20;;;24.40;99.90;;;;;;5241949;28;20034;-71
2023/07/16 05:29:00;;;;;;;3.45;2.65;;;24.50;99.90;;;;;;5242693;28;20032;-73
2023/07/16 05:31:31;;;;;;;3.42;2.60;;;24.60;99.90;;;;;;5243009;28;20232;-72
2023/07/16 05:34:07;;;;;;;2.50;2.30;;;24.70;99.90;;;;;;5221148;28;20035;-72
2023/07/16 05:36:41;;;;;;;12.05;2.88;;;24.70;99.90;;;;;;5220750;28;20013;-72
2023/07/16 05:39:15;;;;;;;4.35;2.55;;;24.90;99.90;;;;;;5236201;28;20031;-73
2023/07/16 05:41:49;;;;;;;2.53;2.30;;;24.90;99.90;;;;;;5241419;28;20036;-72
2023/07/16 05:44:22;;;;;;;2.50;2.30;;;25.00;55.50;;;;;;5224358;28;20032;-72
2023/07/16 05:46:54;;;;;;;4.77;2.77;;;25.00;10.60;;;;;;5240108;28;20047;-73
2023/07/16 05:49:26;;;;;;;2.67;2.05;;;25.10;38.30;;;;;;5241710;28;20577;-72
2023/07/16 05:51:57;;;;;;;4.05;2.22;;;25.30;11.20;;;;;;5242717;28;20032;-72
2023/07/16 05:54:31;;;;;;;2.22;2.00;;;25.30;1.00;;;;;;5241341;28;20044;-72
2023/07/16 05:57:06;;;;;;;3.97;2.63;;;25.50;1.00;;;;;;5232005;28;20317;-72
2023/07/16 05:59:38;;;;;;;3.17;2.58;;;25.60;1.00;;;;;;5237557;28;20379;-72
2023/07/16 06:02:10;;;;;;;2.97;2.67;;;25.50;1.00;;;;;;5233933;28;20046;-71
2023/07/16 06:04:41;;;;;;;5.18;2.65;;;25.50;1.00;;;;;;5237798;28;20044;-70
2023/07/16 06:07:17;;;;;;;5.10;2.50;;;25.40;1.00;;;;;;5241212;28;20033;-72
2023/07/16 06:09:51;;;;;;;4.78;3.17;;;25.60;1.00;;;;;;5223818;28;20062;-72
2023/07/16 06:12:22;;;;;;;2.88;2.60;;;25.60;1.00;;;;;;5243102;28;20321;-72
2023/07/16 06:14:59;;;;;;;2.50;2.30;;;25.70;1.00;;;;;;5242852;28;20036;-69
2023/07/16 06:17:30;;;;;;;4.32;3.30;;;25.70;1.00;;;;;;5237527;28;20212;-73
2023/07/16 06:20:05;;;;;;;3.35;2.60;;;25.70;1.00;;;;;;5258228;28;20044;-73
2023/07/16 06:22:39;;;;;;;2.95;2.47;;;25.70;1.00;;;;;;5257256;28;20267;-72
2023/07/16 06:25:10;;;;;;;3.40;2.80;;;25.70;1.00;;;;;;5242323;28;20030;-72
2023/07/16 06:27:42;;;;;;;3.85;2.78;;;25.90;1.00;;;;;;5240824;28;20213;-72
2023/07/16 06:30:16;;;;;;;3.88;3.00;;;26.00;1.00;;;;;;5237982;28;20036;-73
2023/07/16 06:32:48;;;;;;;2.78;2.53;;;25.90;1.00;;;;;;5241597;28;20190;-74
2023/07/16 06:35:21;;;;;;;3.05;2.60;;;26.10;1.00;;;;;;5263352;28;20036;-74
2023/07/16 06:37:57;;;;;;;3.80;2.83;;;26.10;1.00;;;;;;5253332;28;20027;-73
2023/07/16 06:40:31;;;;;;;3.13;2.50;;;26.10;1.00;;;;;;5242242;28;20067;-73
2023/07/16 06:43:04;;;;;;;3.15;2.40;;;26.30;1.00;;;;;;5242356;28;20046;-73
2023/07/16 06:45:36;;;;;;;7.68;2.92;;;26.40;1.00;;;;;;5236927;28;20196;-73
2023/07/16 06:48:08;;;;;;;3.17;2.58;;;26.40;1.00;;;;;;5245491;28;20032;-72
2023/07/16 06:50:40;;;;;;;3.05;2.72;;;26.30;1.00;;;;;;5241866;28;20036;-73
2023/07/16 06:53:13;;;;;;;6.93;2.20;;;26.70;1.00;;;;;;5222700;28;20036;-73
2023/07/16 06:55:52;;;;;;;2.50;2.30;;;26.80;1.00;;;;;;5241687;28;20229;-72
2023/07/16 06:58:32;;;;;;;2.50;2.17;;;26.70;1.00;;;;;;5221306;28;20252;-73
2023/07/16 07:01:07;;;;;;;3.08;2.08;;;26.80;1.00;;;;;;5221338;28;20043;-73
2023/07/16 07:03:41;;;;;;;2.55;2.33;;;27.10;1.00;;;;;;5240960;28;20029;-72
2023/07/16 07:06:14;;;;;;;2.63;2.20;;;27.30;1.00;;;;;;5223762;28;20036;-74
2023/07/16 07:08:46;;;;;;;2.85;2.10;;;27.10;1.00;;;;;;5238288;28;20063;-72
2023/07/16 07:11:20;;;;;;;3.08;2.20;;;27.20;1.00;;;;;;5240980;28;20024;-73
2023/07/16 07:13:57;;;;;;;;;;;27.10;1.00;;;;;;5223775;28;20040;-72
2023/07/16 07:16:28;;;;;;;2.30;1.55;;;27.20;1.00;;;;;;5239196;28;19908;-71
2023/07/16 07:19:00;;;;;;;2.63;2.03;;;27.30;1.00;;;;;;5228376;28;20323;-74
2023/07/16 07:21:31;;;;;;;4.40;1.75;;;27.40;1.00;;;;;;5229897;28;20032;-72
2023/07/16 07:24:03;;;;;;;2.33;2.10;;;27.40;1.00;;;;;;5242613;28;20024;-72
2023/07/16 07:26:34;;;;;;;4.30;1.90;;;27.40;1.00;;;;;;5223559;28;20301;-72
2023/07/16 07:29:08;;;;;;;4.50;2.05;;;27.40;1.00;;;;;;5241491;28;20276;-72
2023/07/16 07:31:41;;;;;;;2.20;1.95;;;27.30;1.00;;;;;;5247838;28;20224;-72
2023/07/16 07:34:13;;;;;;;2.20;1.90;;;27.70;1.00;;;;;;5255447;28;20031;-71
2023/07/16 07:36:46;;;;;;;1.90;1.70;;;27.70;1.00;;;;;;5244129;28;20333;-71
2023/07/16 07:39:18;;;;;;;;;;;27.80;1.00;;;;;;5246399;28;20028;-71
2023/07/16 07:41:49;;;;;;;2.20;2.00;;;27.70;1.00;;;;;;5244806;28;20216;-71
2023/07/16 07:44:22;;;;;;;1.83;1.67;;;27.70;1.00;;;;;;5244913;28;20046;-72
2023/07/16 07:46:55;;;;;;;2.28;1.85;;;27.90;1.00;;;;;;5242762;28;20408;-73
2023/07/16 07:49:29;;;;;;;2.10;1.90;;;27.90;1.00;;;;;;5261221;28;20040;-73
2023/07/16 07:52:00;;;;;;;2.08;1.63;;;28.00;1.00;;;;;;5245680;28;20531;-73
2023/07/16 07:54:35;;;;;;;2.38;2.10;;;28.00;1.00;;;;;;5245608;28;20038;-72
2023/07/16 07:57:10;;;;;;;2.55;2.08;;;28.10;1.00;;;;;;5214727;28;20062;-72
2023/07/16 07:59:41;;;;;;;4.68;2.30;;;28.10;99.90;;;;;;5243513;28;20032;-73
2023/07/16 08:02:15;;;;;;;2.63;1.90;;;28.10;1.00;;;;;;5237337;28;20318;-72
2023/07/16 08:04:46;;;;;;;3.30;2.03;;;28.10;1.00;;;;;;5224489;28;20244;-72
2023/07/16 08:07:18;;;;;;;3.05;1.90;;;28.30;99.90;;;;;;5204723;28;20388;-74
2023/07/16 08:09:55;;;;;;;3.15;2.00;;;28.50;99.90;;;;;;5223504;28;20058;-71
2023/07/16 08:12:26;;;;;;;2.00;1.70;;;28.20;99.90;;;;;;5224420;28;20031;-72
2023/07/16 08:14:58;;;;;;;2.40;1.73;;;28.30;99.90;;;;;;5206130;28;20345;-72
2023/07/16 08:17:29;;;;;;;1.98;1.77;;;28.40;99.90;;;;;;5198343;28;20033;-71
2023/07/16 08:20:01;;;;;;;2.88;1.60;;;28.50;99.90;;;;;;5202381;28;20055;-73
2023/07/16 08:22:32;;;;;;;1.80;1.60;;;28.70;99.90;;;;;;5216173;28;20037;-73
2023/07/16 08:25:04;;;;;;;2.13;1.70;;;28.80;99.90;;;;;;5224130;28;20035;-72
2023/07/16 08:27:35;;;;;;;1.73;1.63;;;29.10;99.90;;;;;;5222515;28;20260;-70
2023/07/16 08:30:07;;;;;;;1.92;1.65;;;29.20;99.90;;;;;;5219931;28;20047;-70
2023/07/16 08:32:41;;;;;;;1.75;1.63;;;29.20;99.90;;;;;;5224853;28;20169;-72
2023/07/16 08:35:16;;;;;;;;;;;29.20;99.90;;;;;;5224943;28;20051;-72
2023/07/16 08:37:47;;;;;;;2.50;2.30;;;29.30;1.00;;;;;;5222444;28;19900;-71
2023/07/16 08:40:24;;;;;;;2.58;2.05;;;29.20;1.00;;;;;;5222174;28;20033;-71
2023/07/16 08:42:57;;;;;;;2.53;1.88;;;29.30;1.00;;;;;;5224320;28;20340;-72
2023/07/16 08:45:30;;;;;;;2.58;1.90;;;29.50;1.00;;;;;;5219541;28;20055;-72
2023/07/16 08:48:02;;;;;;;2.75;1.98;;;29.30;1.00;;;;;;5224303;28;20059;-72
2023/07/16 08:50:37;;;;;;;2.38;1.88;;;29.60;50.10;;;;;;5224591;28;20031;-71
2023/07/16 08:53:08;;;;;;;2.38;2.17;;;29.70;91.40;;;;;;5223286;28;20041;-73
2023/07/16 08:55:44;;;;;;;1.95;1.75;;;29.70;1.00;;;;;;5224058;28;20462;-70
2023/07/16 08:58:17;;;;;;;1.75;1.52;;;29.80;6.00;;;;;;5222508;28;20029;-70
2023/07/16 09:00:52;;;;;;;2.07;1.43;;;29.80;99.80;;;;;;5221147;28;20198;-70
2023/07/16 09:03:23;;;;;;;2.03;1.88;;;29.60;99.90;;;;;;5265483;28;20024;-71
2023/07/16 09:06:00;;;;;;;3.67;1.60;;;29.80;99.90;;;;;;5264964;28;20197;-70
2023/07/16 09:08:32;;;;;;;3.67;2.72;;;30.10;1.00;;;;;;5265512;28;20023;-70
2023/07/16 09:11:04;;;;;;;2.33;1.60;;;30.40;12.40;;;;;;5247400;28;20040;-70
2023/07/16 09:13:37;;;;;;;2.28;2.00;;;30.40;1.00;;;;;;5246200;28;20043;-70
2023/07/16 09:16:09;;;;;;;1.75;1.65;;;30.40;1.00;;;;;;5244326;28;20036;-70
2023/07/16 09:18:42;;;;;;;3.10;2.10;;;30.30;1.00;;;;;;5265122;28;20038;-70
2023/07/16 09:21:14;;;;;;;2.20;2.00;;;30.40;99.90;;;;;;5240863;28;20277;-71
2023/07/16 09:23:45;;;;;;;3.25;2.00;;;30.40;1.00;;;;;;5265914;28;20040;-70
2023/07/16 09:26:16;;;;;;;2.92;1.92;;;30.40;99.90;;;;;;5230312;28;20058;-70
2023/07/16 09:28:50;;;;;;;1.77;1.67;;;30.40;1.00;;;;;;5265375;28;20178;-70
2023/07/16 09:31:21;;;;;;;3.20;1.70;;;30.40;1.00;;;;;;5242095;28;20317;-71
2023/07/16 09:33:55;;;;;;;1.77;1.67;;;30.60;1.00;;;;;;5230170;28;20035;-70
2023/07/16 09:36:27;;;;;;;;;;;30.00;1.00;;;;;;5264858;28;20506;-71
2023/07/16 09:39:04;;;;;;;1.88;1.63;;;29.90;1.00;;;;;;5265718;28;19900;-71
2023/07/16 09:41:40;;;;;;;1.80;1.70;;;30.20;1.00;;;;;;5243793;28;20043;-71
2023/07/16 09:44:13;;;;;;;1.98;1.50;;;30.50;1.00;;;;;;5265557;28;20028;-70
2023/07/16 09:46:45;;;;;;;2.70;1.83;;;30.90;1.00;;;;;;5243801;28;20336;-70
2023/07/16 09:49:17;;;;;;;1.77;1.48;;;31.20;1.00;;;;;;5265516;28;20355;-70
2023/07/16 09:51:54;;;;;;;2.15;1.65;;;31.30;1.00;;;;;;5245879;28;20382;-70
2023/07/16 09:54:31;;;;;;;1.73;1.63;;;31.10;1.00;;;;;;5245081;28;20050;-70
2023/07/16 09:57:08;;;;;;;1.83;1.58;;;31.40;1.00;;;;;;5241210;28;20032;-70
2023/07/16 09:59:42;;;;;;;1.85;1.60;;;31.10;1.00;;;;;;5243997;28;20020;-70
2023/07/16 10:02:18;;;;;;;2.20;1.92;;;31.40;1.00;;;;;;5237270;28;20226;-70
2023/07/16 10:04:57;;;;;;;3.33;1.70;;;31.70;1.00;;;;;;5229648;28;20036;-70
2023/07/16 10:07:30;;;;;;;1.67;1.58;;;31.60;1.00;;;;;;5230726;28;20486;-70
2023/07/16 10:10:08;;;;;;;2.35;1.77;;;31.80;1.00;;;;;;5227532;28;20162;-71
2023/07/16 10:12:42;;;;;;;2.05;1.60;;;31.60;24.90;;;;;;5213014;28;20058;-69
2023/07/16 10:15:24;;;;;;;1.60;1.50;;;31.70;1.00;;;;;;5261594;28;20028;-71
2023/07/16 10:17:56;;;;;;;1.70;1.60;;;32.10;87.60;;;;;;5265264;28;20046;-70
2023/07/16 10:20:42;;;;;;;1.67;1.58;;;32.20;1.00;;;;;;5264603;28;20050;-71
2023/07/16 10:23:18;;;;;;;2.20;2.00;;;32.10;99.90;;;;;;5262868;28;20050;-71
2023/07/16 10:26:06;;;;;;;1.88;1.70;;;32.10;99.90;;;;;;5247143;28;20032;-70
2023/07/16 10:28:38;;;;;;;1.45;1.35;;;32.50;99.90;;;;;;5257030;28;20036;-70
2023/07/16 10:31:27;;;;;;;2.35;1.70;;;32.90;1.00;;;;;;5243350;28;20216;-71
2023/07/16 10:34:05;;;;;;;2.63;1.92;;;32.70;1.00;;;;;;5251915;28;20024;-70
2023/07/16 10:36:38;;;;;;;1.80;1.70;;;33.10;1.00;;;;;;5246608;28;20048;-71
2023/07/16 10:39:12;;;;;;;1.88;1.77;;;33.50;99.90;;;;;;5245880;28;20036;-70
2023/07/16 10:41:47;;;;;;;1.80;1.70;;;33.30;85.40;;;;;;5229446;28;20036;-71
2023/07/16 10:44:24;;;;;;;1.90;1.42;;;33.10;99.90;;;;;;5243037;28;20183;-71
2023/07/16 10:46:56;;;;;;;1.85;1.75;;;33.30;99.90;;;;;;5258375;28;20035;-70
2023/07/16 10:49:30;;;;;;;2.05;1.85;;;33.70;99.90;;;;;;5264439;28;20036;-70
2023/07/16 10:52:02;;;;;;;1.98;1.88;;;33.80;99.90;;;;;;5246228;28;20040;-71
2023/07/16 10:54:36;;;;;;;2.42;2.05;;;34.60;99.90;;;;;;5229729;28;20034;-72
2023/07/16 10:57:08;;;;;;;3.15;1.88;;;36.40;99.90;;;;;;5240920;28;20062;-71
2023/07/16 10:59:46;;;;;;;2.35;2.15;;;36.90;1.00;;;;;;5242706;28;20016;-71
2023/07/16 11:02:18;;;;;;;1.77;1.67;;;35.50;1.00;;;;;;5237260;28;20486;-71
2023/07/16 11:04:57;;;;;;;1.90;1.80;;;35.90;26.40;;;;;;5246762;28;20102;-71
2023/07/16 11:07:30;;;;;;;2.20;1.75;;;36.80;1.00;;;;;;5247283;28;20044;-71
2023/07/16 11:10:05;;;;;;;2.10;1.90;;;36.40;1.00;;;;;;5249400;28;20420;-71
2023/07/16 11:12:36;;;;;;;1.50;1.40;;;34.70;1.00;;;;;;5268912;28;20042;-71
2023/07/16 11:15:10;;;;;;;2.45;1.80;;;35.30;99.90;;;;;;5247042;28;20022;-71
2023/07/16 11:17:41;;;;;;;1.63;1.52;;;36.20;99.90;;;;;;5243512;28;20228;-71
2023/07/16 11:20:13;;;;;;;1.55;1.45;;;37.50;84.30;;;;;;5237138;28;20225;-71
2023/07/16 11:22:50;;;;;;;2.78;1.80;;;37.50;1.00;;;;;;5267523;28;20027;-71
2023/07/16 11:25:25;;;;;;;1.75;1.65;;;37.70;1.00;;;;;;5268017;28;20295;-71
2023/07/16 11:28:01;;;;;;;2.05;1.83;;;37.70;48.40;;;;;;5268526;28;20035;-71
2023/07/16 11:30:35;;;;;;;2.45;1.67;;;35.90;1.00;;;;;;5227493;28;20040;-72
2023/07/16 11:33:20;;;;;;;1.88;1.60;;;35.50;18.80;;;;;;5216834;28;20034;-71
2023/07/16 11:36:00;;;;;;;1.88;1.73;;;35.90;1.00;;;;;;5250435;28;20042;-71
2023/07/16 11:38:36;;;;;;;1.70;1.60;;;36.60;1.00;;;;;;5249553;28;20062;-73
2023/07/16 11:41:08;;;;;;;2.20;2.00;;;37.00;1.00;;;;;;5267893;28;20530;-72
2023/07/16 11:43:41;;;;;;;1.77;1.67;;;37.40;1.00;;;;;;5250667;28;20024;-73
2023/07/16 11:46:22;;;;;;;1.52;1.42;;;37.40;1.00;;;;;;5227215;28;20032;-71
2023/07/16 11:48:57;;;;;;;1.63;1.42;;;37.60;1.00;;;;;;5268358;28;20034;-73
2023/07/16 11:51:28;;;;;;;3.67;2.10;;;37.90;1.00;;;;;;5268399;28;20030;-71
2023/07/16 11:53:59;;;;;;;1.73;1.63;;;38.00;1.00;;;;;;5229662;28;20034;-73
2023/07/16 11:56:33;;;;;;;2.08;1.88;;;38.10;1.00;;;;;;5266475;28;20474;-72
2023/07/16 11:59:05;;;;;;;1.70;1.60;;;39.10;1.00;;;;;;5249572;28;20032;-71
2023/07/16 12:01:39;;;;;;;2.00;1.60;;;39.00;1.00;;;;;;5266500;28;20032;-73
2023/07/16 12:04:11;;;;;;;1.80;1.70;;;39.20;1.00;;;;;;5233389;28;20383;-71
2023/07/16 12:06:44;;;;;;;2.15;1.95;;;41.10;1.00;;;;;;5268103;28;20046;-72
2023/07/16 12:09:16;;;;;;;2.00;1.80;;;41.70;99.90;;;;;;5248923;28;20321;-71
2023/07/16 12:11:52;;;;;;;1.55;1.45;;;40.70;1.00;;;;;;5267767;28;20032;-71
2023/07/16 12:14:24;;;;;;;1.83;1.73;;;42.00;1.00;;;;;;5232839;28;20036;-72
2023/07/16 12:17:00;;;;;;;1.50;1.40;;;40.90;1.00;;;;;;5243831;28;20306;-72
2023/07/16 12:19:34;;;;;;;2.00;1.90;;;39.60;99.90;;;;;;5257729;28;20040;-71
2023/07/16 12:22:08;;;;;;;2.15;1.95;;;39.30;99.90;;;;;;5267315;28;20050;-71
2023/07/16 12:24:42;;;;;;;1.75;1.63;;;39.00;99.90;;;;;;5248913;28;20040;-71
2023/07/16 12:27:18;;;;;;;2.10;1.90;;;39.70;99.90;;;;;;5249616;28;20031;-71
2023/07/16 12:29:52;;;;;;;1.67;1.58;;;40.00;1.00;;;;;;5267057;28;20024;-71
2023/07/16 12:32:25;;;;;;;1.80;1.70;;;41.30;1.00;;;;;;5210421;28;20051;-72
2023/07/16 12:34:57;;;;;;;1.65;1.55;;;42.30;1.00;;;;;;5246439;28;20038;-71
2023/07/16 12:37:29;;;;;;;1.58;1.48;;;42.40;1.00;;;;;;5229149;28;20351;-71
2023/07/16 12:40:00;;;;;;;1.65;1.55;;;42.00;1.00;;;;;;5254569;28;20027;-72
2023/07/16 12:42:31;;;;;;;2.00;1.90;;;43.50;1.00;;;;;;5254125;28;20052;-71
2023/07/16 12:45:06;;;;;;;1.50;1.40;;;40.60;99.90;;;;;;5267280;28;20024;-72
2023/07/16 12:47:40;;;;;;;6.38;1.98;;;39.40;99.90;;;;;;5237954;28;20066;-71
2023/07/16 12:50:11;;;;;;;1.67;1.50;;;39.90;99.90;;;;;;5232155;28;20036;-73
2023/07/16 12:52:45;;;;;;;1.70;1.60;;;39.50;99.90;;;;;;5248230;28;20032;-71
2023/07/16 12:55:19;;;;;;;2.45;1.67;;;39.40;99.90;;;;;;5266824;28;20035;-71
2023/07/16 12:57:51;;;;;;;1.90;1.70;;;38.90;99.90;;;;;;5247770;28;20034;-72
2023/07/16 13:00:22;;;;;;;1.50;1.40;;;39.20;99.90;;;;;;5247318;28;20020;-72
2023/07/16 13:02:55;;;;;;;1.80;1.70;;;40.90;99.90;;;;;;5261442;28;20086;-71
2023/07/16 13:05:27;;;;;;;1.75;1.65;;;42.40;99.90;;;;;;5248624;28;20053;-71
2023/07/16 13:07:58;;;;;;;4.32;1.70;;;41.40;99.90;;;;;;5265554;28;20032;-71
2023/07/16 13:10:30;;;;;;;1.73;1.63;;;41.20;99.90;;;;;;5248065;28;20042;-72
2023/07/16 13:13:04;;;;;;;1.60;1.50;;;41.00;99.90;;;;;;5231439;28;20092;-73
2023/07/16 13:15:35;;;;;;;1.45;1.35;;;39.70;99.90;;;;;;5245819;28;20058;-71
2023/07/16 13:18:09;;;;;;;2.50;1.58;;;38.20;99.90;;;;;;5247673;28;20036;-71
2023/07/16 13:20:42;;;;;;;1.55;1.45;;;38.90;99.90;;;;;;5265754;28;20024;-71
2023/07/16 13:23:19;;;;;;;1.55;1.45;;;39.80;99.90;;;;;;5248001;28;20036;-72
2023/07/16 13:25:53;;;;;;;1.60;1.50;;;40.20;99.90;;;;;;5243066;28;20119;-72